sensor_id;sensor_type;location;lat;lon;timestamp;P1;durP1;ratioP1;P2;durP2;ratioP2
26512;SDS011;14186;53.822;10.152;2023-02-28T00:02:33;10.23;;;4.85;;
26512;SDS011;14186;53.822;10.152;2023-02-28T00:07:33;9.23;;;4.70;;
26512;SDS011;14186;53.822;10.152;2023-02-28T00:12:35;11.45;;;5.20;;
26512;SDS011;14186;53.822;10.152;2023-02-28T00:17:35;15.20;;;5.25;;
26512;SDS011;14186;53.822;10.152;2023-02-28T00:22:36;11.05;;;5.60;;
26512;SDS011;14186;53.822;10.152;2023-02-28T00:27:38;13.77;;;5.47;;
26512;SDS011;14186;53.822;10.152;2023-02-28T00:32:38;11.15;;;5.00;;
26512;SDS011;14186;53.822;10.152;2023-02-28T00:37:39;12.20;;;4.57;;
26512;SDS011;14186;53.822;10.152;2023-02-28T00:42:40;12.25;;;5.22;;
26512;SDS011;14186;53.822;10.152;2023-02-28T00:47:40;13.93;;;4.82;;
26512;SDS011;14186;53.822;10.152;2023-02-28T00:52:41;9.75;;;4.57;;
26512;SDS011;14186;53.822;10.152;2023-02-28T00:57:42;9.90;;;3.75;;
26512;SDS011;14186;53.822;10.152;2023-02-28T01:02:42;9.48;;;3.97;;
26512;SDS011;14186;53.822;10.152;2023-02-28T01:07:43;9.27;;;3.60;;
26512;SDS011;14186;53.822;10.152;2023-02-28T01:12:44;10.25;;;4.28;;
26512;SDS011;14186;53.822;10.152;2023-02-28T01:17:44;12.40;;;4.43;;
26512;SDS011;14186;53.822;10.152;2023-02-28T01:22:44;8.52;;;4.25;;
26512;SDS011;14186;53.822;10.152;2023-02-28T01:27:46;11.15;;;4.68;;
26512;SDS011;14186;53.822;10.152;2023-02-28T01:32:46;7.25;;;3.45;;
26512;SDS011;14186;53.822;10.152;2023-02-28T01:37:46;9.00;;;3.47;;
26512;SDS011;14186;53.822;10.152;2023-02-28T01:42:48;9.20;;;3.20;;
26512;SDS011;14186;53.822;10.152;2023-02-28T01:47:49;9.55;;;3.47;;
26512;SDS011;14186;53.822;10.152;2023-02-28T01:52:50;11.05;;;3.47;;
26512;SDS011;14186;53.822;10.152;2023-02-28T01:57:52;7.00;;;3.22;;
26512;SDS011;14186;53.822;10.152;2023-02-28T02:02:55;7.50;;;3.40;;
26512;SDS011;14186;53.822;10.152;2023-02-28T02:07:56;6.85;;;3.08;;
26512;SDS011;14186;53.822;10.152;2023-02-28T02:18:18;9.95;;;3.65;;
26512;SDS011;14186;53.822;10.152;2023-02-28T02:28:45;9.65;;;3.38;;
26512;SDS011;14186;53.822;10.152;2023-02-28T02:34:02;7.78;;;3.53;;
26512;SDS011;14186;53.822;10.152;2023-02-28T02:39:06;8.95;;;3.75;;
26512;SDS011;14186;53.822;10.152;2023-02-28T02:44:12;10.52;;;3.92;;
26512;SDS011;14186;53.822;10.152;2023-02-28T02:49:16;10.73;;;3.47;;
26512;SDS011;14186;53.822;10.152;2023-02-28T02:59:20;9.52;;;4.07;;
26512;SDS011;14186;53.822;10.152;2023-02-28T03:04:23;13.43;;;3.80;;
26512;SDS011;14186;53.822;10.152;2023-02-28T03:09:25;13.88;;;4.30;;
26512;SDS011;14186;53.822;10.152;2023-02-28T03:14:28;7.85;;;3.03;;
26512;SDS011;14186;53.822;10.152;2023-02-28T03:19:36;9.45;;;3.63;;
26512;SDS011;14186;53.822;10.152;2023-02-28T03:24:39;9.38;;;3.20;;
26512;SDS011;14186;53.822;10.152;2023-02-28T03:29:42;7.45;;;3.13;;
26512;SDS011;14186;53.822;10.152;2023-02-28T03:34:46;6.22;;;3.45;;
26512;SDS011;14186;53.822;10.152;2023-02-28T03:39:49;8.93;;;2.97;;
26512;SDS011;14186;53.822;10.152;2023-02-28T03:44:52;7.05;;;2.65;;
26512;SDS011;14186;53.822;10.152;2023-02-28T03:49:56;5.45;;;2.63;;
26512;SDS011;14186;53.822;10.152;2023-02-28T03:54:59;9.93;;;3.15;;
26512;SDS011;14186;53.822;10.152;2023-02-28T04:00:02;7.43;;;2.45;;
26512;SDS011;14186;53.822;10.152;2023-02-28T04:05:06;6.82;;;2.47;;
26512;SDS011;14186;53.822;10.152;2023-02-28T04:10:06;7.68;;;2.85;;
26512;SDS011;14186;53.822;10.152;2023-02-28T04:15:07;7.03;;;2.50;;
26512;SDS011;14186;53.822;10.152;2023-02-28T04:20:10;5.68;;;2.50;;
26512;SDS011;14186;53.822;10.152;2023-02-28T04:25:10;13.45;;;3.22;;
26512;SDS011;14186;53.822;10.152;2023-02-28T04:30:11;7.78;;;2.45;;
26512;SDS011;14186;53.822;10.152;2023-02-28T04:35:12;6.72;;;2.42;;
26512;SDS011;14186;53.822;10.152;2023-02-28T04:40:14;8.80;;;2.90;;
26512;SDS011;14186;53.822;10.152;2023-02-28T04:45:14;6.75;;;2.20;;
26512;SDS011;14186;53.822;10.152;2023-02-28T04:50:16;8.18;;;2.78;;
26512;SDS011;14186;53.822;10.152;2023-02-28T04:55:16;9.10;;;2.67;;
26512;SDS011;14186;53.822;10.152;2023-02-28T05:00:16;9.77;;;2.47;;
26512;SDS011;14186;53.822;10.152;2023-02-28T05:05:18;8.48;;;3.08;;
26512;SDS011;14186;53.822;10.152;2023-02-28T05:10:18;7.90;;;3.45;;
26512;SDS011;14186;53.822;10.152;2023-02-28T05:15:18;6.97;;;2.63;;
26512;SDS011;14186;53.822;10.152;2023-02-28T05:20:20;9.38;;;3.15;;
26512;SDS011;14186;53.822;10.152;2023-02-28T05:25:20;6.32;;;2.97;;
26512;SDS011;14186;53.822;10.152;2023-02-28T05:30:21;9.40;;;3.53;;
26512;SDS011;14186;53.822;10.152;2023-02-28T05:35:22;6.00;;;3.22;;
26512;SDS011;14186;53.822;10.152;2023-02-28T05:40:23;16.92;;;4.43;;
26512;SDS011;14186;53.822;10.152;2023-02-28T05:45:23;11.93;;;3.95;;
26512;SDS011;14186;53.822;10.152;2023-02-28T05:50:24;9.38;;;3.22;;
26512;SDS011;14186;53.822;10.152;2023-02-28T05:55:25;11.40;;;4.15;;
26512;SDS011;14186;53.822;10.152;2023-02-28T06:00:25;9.00;;;3.85;;
26512;SDS011;14186;53.822;10.152;2023-02-28T06:05:26;9.00;;;3.88;;
26512;SDS011;14186;53.822;10.152;2023-02-28T06:10:27;10.43;;;3.95;;
26512;SDS011;14186;53.822;10.152;2023-02-28T06:15:27;14.90;;;4.05;;
26512;SDS011;14186;53.822;10.152;2023-02-28T06:20:28;8.57;;;3.72;;
26512;SDS011;14186;53.822;10.152;2023-02-28T06:25:29;9.20;;;4.00;;
26512;SDS011;14186;53.822;10.152;2023-02-28T06:30:29;8.75;;;3.90;;
26512;SDS011;14186;53.822;10.152;2023-02-28T06:35:31;9.02;;;4.20;;
26512;SDS011;14186;53.822;10.152;2023-02-28T06:40:31;11.60;;;3.95;;
26512;SDS011;14186;53.822;10.152;2023-02-28T06:45:31;12.82;;;4.30;;
26512;SDS011;14186;53.822;10.152;2023-02-28T06:50:32;15.52;;;4.68;;
26512;SDS011;14186;53.822;10.152;2023-02-28T06:55:33;9.93;;;4.07;;
26512;SDS011;14186;53.822;10.152;2023-02-28T07:00:33;9.13;;;4.43;;
26512;SDS011;14186;53.822;10.152;2023-02-28T07:05:35;10.88;;;4.85;;
26512;SDS011;14186;53.822;10.152;2023-02-28T07:10:36;8.98;;;4.13;;
26512;SDS011;14186;53.822;10.152;2023-02-28T07:15:37;12.40;;;5.72;;
26512;SDS011;14186;53.822;10.152;2023-02-28T07:20:38;11.55;;;4.78;;
26512;SDS011;14186;53.822;10.152;2023-02-28T07:25:39;13.13;;;4.90;;
26512;SDS011;14186;53.822;10.152;2023-02-28T07:30:39;8.77;;;4.40;;
26512;SDS011;14186;53.822;10.152;2023-02-28T07:35:40;11.70;;;4.67;;
26512;SDS011;14186;53.822;10.152;2023-02-28T07:40:41;11.18;;;4.68;;
26512;SDS011;14186;53.822;10.152;2023-02-28T07:45:41;10.93;;;4.70;;
26512;SDS011;14186;53.822;10.152;2023-02-28T07:50:42;10.05;;;4.70;;
26512;SDS011;14186;53.822;10.152;2023-02-28T07:55:43;11.63;;;4.80;;
26512;SDS011;14186;53.822;10.152;2023-02-28T08:00:43;12.77;;;4.57;;
26512;SDS011;14186;53.822;10.152;2023-02-28T08:05:44;12.95;;;5.05;;
26512;SDS011;14186;53.822;10.152;2023-02-28T08:10:44;9.45;;;4.70;;
26512;SDS011;14186;53.822;10.152;2023-02-28T08:15:45;9.68;;;4.53;;
26512;SDS011;14186;53.822;10.152;2023-02-28T08:20:46;11.85;;;4.20;;
26512;SDS011;14186;53.822;10.152;2023-02-28T08:25:52;9.02;;;3.72;;
26512;SDS011;14186;53.822;10.152;2023-02-28T08:30:52;27.23;;;4.53;;
26512;SDS011;14186;53.822;10.152;2023-02-28T08:35:54;8.02;;;3.30;;
26512;SDS011;14186;53.822;10.152;2023-02-28T08:40:57;8.98;;;3.42;;
26512;SDS011;14186;53.822;10.152;2023-02-28T08:45:57;9.18;;;3.10;;
26512;SDS011;14186;53.822;10.152;2023-02-28T08:50:59;6.32;;;3.20;;
26512;SDS011;14186;53.822;10.152;2023-02-28T08:55:59;5.53;;;2.83;;
26512;SDS011;14186;53.822;10.152;2023-02-28T09:01:00;7.40;;;3.67;;
26512;SDS011;14186;53.822;10.152;2023-02-28T09:06:02;7.15;;;3.08;;
26512;SDS011;14186;53.822;10.152;2023-02-28T09:11:02;10.25;;;3.38;;
26512;SDS011;14186;53.822;10.152;2023-02-28T09:16:03;9.77;;;4.00;;
26512;SDS011;14186;53.822;10.152;2023-02-28T09:21:05;7.43;;;3.58;;
26512;SDS011;14186;53.822;10.152;2023-02-28T09:26:06;9.70;;;3.25;;
26512;SDS011;14186;53.822;10.152;2023-02-28T09:31:10;7.68;;;3.58;;
26512;SDS011;14186;53.822;10.152;2023-02-28T09:36:12;9.88;;;2.55;;
26512;SDS011;14186;53.822;10.152;2023-02-28T09:41:13;10.32;;;3.47;;
26512;SDS011;14186;53.822;10.152;2023-02-28T09:46:18;7.82;;;3.05;;
26512;SDS011;14186;53.822;10.152;2023-02-28T09:51:30;6.07;;;2.60;;
26512;SDS011;14186;53.822;10.152;2023-02-28T09:56:33;6.80;;;2.53;;
26512;SDS011;14186;53.822;10.152;2023-02-28T10:01:37;7.70;;;2.85;;
26512;SDS011;14186;53.822;10.152;2023-02-28T10:06:41;11.73;;;3.13;;
26512;SDS011;14186;53.822;10.152;2023-02-28T10:11:44;7.45;;;2.20;;
26512;SDS011;14186;53.822;10.152;2023-02-28T10:16:46;4.10;;;1.70;;
26512;SDS011;14186;53.822;10.152;2023-02-28T10:21:49;5.30;;;1.55;;
26512;SDS011;14186;53.822;10.152;2023-02-28T10:26:51;3.37;;;1.47;;
26512;SDS011;14186;53.822;10.152;2023-02-28T10:31:52;5.03;;;1.70;;
26512;SDS011;14186;53.822;10.152;2023-02-28T10:36:53;4.40;;;1.50;;
26512;SDS011;14186;53.822;10.152;2023-02-28T10:41:54;3.58;;;1.27;;
26512;SDS011;14186;53.822;10.152;2023-02-28T10:46:54;5.32;;;1.92;;
26512;SDS011;14186;53.822;10.152;2023-02-28T10:51:57;7.22;;;1.85;;
26512;SDS011;14186;53.822;10.152;2023-02-28T10:57:15;4.60;;;1.38;;
26512;SDS011;14186;53.822;10.152;2023-02-28T11:02:32;4.63;;;1.50;;
26512;SDS011;14186;53.822;10.152;2023-02-28T11:07:34;6.03;;;1.70;;
26512;SDS011;14186;53.822;10.152;2023-02-28T11:12:37;2.83;;;1.52;;
26512;SDS011;14186;53.822;10.152;2023-02-28T11:17:37;5.30;;;1.48;;
26512;SDS011;14186;53.822;10.152;2023-02-28T11:22:43;5.85;;;1.75;;
26512;SDS011;14186;53.822;10.152;2023-02-28T11:27:46;3.80;;;2.05;;
26512;SDS011;14186;53.822;10.152;2023-02-28T11:32:48;5.03;;;2.00;;
26512;SDS011;14186;53.822;10.152;2023-02-28T11:37:49;5.40;;;2.08;;
26512;SDS011;14186;53.822;10.152;2023-02-28T11:42:53;4.07;;;1.55;;
26512;SDS011;14186;53.822;10.152;2023-02-28T11:47:55;5.85;;;1.77;;
26512;SDS011;14186;53.822;10.152;2023-02-28T11:52:59;3.65;;;1.55;;
26512;SDS011;14186;53.822;10.152;2023-02-28T11:58:05;3.75;;;1.42;;
26512;SDS011;14186;53.822;10.152;2023-02-28T12:03:11;4.97;;;1.65;;
26512;SDS011;14186;53.822;10.152;2023-02-28T12:13:18;5.72;;;1.50;;
26512;SDS011;14186;53.822;10.152;2023-02-28T12:18:26;7.32;;;1.60;;
26512;SDS011;14186;53.822;10.152;2023-02-28T12:23:41;3.97;;;1.20;;
26512;SDS011;14186;53.822;10.152;2023-02-28T12:28:45;4.85;;;1.33;;
26512;SDS011;14186;53.822;10.152;2023-02-28T12:33:47;4.40;;;1.80;;
26512;SDS011;14186;53.822;10.152;2023-02-28T12:38:48;4.40;;;1.70;;
26512;SDS011;14186;53.822;10.152;2023-02-28T12:43:52;3.95;;;1.55;;
26512;SDS011;14186;53.822;10.152;2023-02-28T12:48:56;5.47;;;1.80;;
26512;SDS011;14186;53.822;10.152;2023-02-28T12:53:58;3.75;;;1.80;;
26512;SDS011;14186;53.822;10.152;2023-02-28T12:59:03;6.53;;;1.90;;
26512;SDS011;14186;53.822;10.152;2023-02-28T13:04:13;6.78;;;2.15;;
26512;SDS011;14186;53.822;10.152;2023-02-28T13:09:19;8.05;;;2.25;;
26512;SDS011;14186;53.822;10.152;2023-02-28T13:14:22;4.18;;;1.63;;
26512;SDS011;14186;53.822;10.152;2023-02-28T13:19:23;6.28;;;1.80;;
26512;SDS011;14186;53.822;10.152;2023-02-28T13:24:38;8.25;;;2.42;;
26512;SDS011;14186;53.822;10.152;2023-02-28T13:29:40;5.43;;;1.77;;
26512;SDS011;14186;53.822;10.152;2023-02-28T13:34:41;4.28;;;2.03;;
26512;SDS011;14186;53.822;10.152;2023-02-28T13:39:45;4.25;;;2.75;;
26512;SDS011;14186;53.822;10.152;2023-02-28T13:50:24;3.85;;;1.80;;
26512;SDS011;14186;53.822;10.152;2023-02-28T13:55:27;5.88;;;1.60;;
26512;SDS011;14186;53.822;10.152;2023-02-28T14:00:31;3.03;;;1.40;;
26512;SDS011;14186;53.822;10.152;2023-02-28T14:05:36;5.28;;;1.88;;
26512;SDS011;14186;53.822;10.152;2023-02-28T14:10:39;5.45;;;1.55;;
26512;SDS011;14186;53.822;10.152;2023-02-28T14:15:47;5.53;;;1.80;;
26512;SDS011;14186;53.822;10.152;2023-02-28T14:20:52;4.95;;;1.85;;
26512;SDS011;14186;53.822;10.152;2023-02-28T14:25:54;2.60;;;1.40;;
26512;SDS011;14186;53.822;10.152;2023-02-28T14:31:01;5.30;;;1.17;;
26512;SDS011;14186;53.822;10.152;2023-02-28T14:36:07;4.68;;;1.88;;
26512;SDS011;14186;53.822;10.152;2023-02-28T14:41:14;2.55;;;1.13;;
26512;SDS011;14186;53.822;10.152;2023-02-28T14:46:16;3.00;;;1.10;;
26512;SDS011;14186;53.822;10.152;2023-02-28T14:51:19;5.45;;;1.52;;
26512;SDS011;14186;53.822;10.152;2023-02-28T14:56:21;4.55;;;1.33;;
26512;SDS011;14186;53.822;10.152;2023-02-28T15:01:22;2.67;;;1.20;;
26512;SDS011;14186;53.822;10.152;2023-02-28T15:06:24;2.70;;;1.35;;
26512;SDS011;14186;53.822;10.152;2023-02-28T15:11:24;27.33;;;13.63;;
26512;SDS011;14186;53.822;10.152;2023-02-28T15:16:25;7.32;;;3.47;;
26512;SDS011;14186;53.822;10.152;2023-02-28T15:21:27;4.68;;;1.80;;
26512;SDS011;14186;53.822;10.152;2023-02-28T15:26:29;3.70;;;1.48;;
26512;SDS011;14186;53.822;10.152;2023-02-28T15:31:32;5.82;;;2.00;;
26512;SDS011;14186;53.822;10.152;2023-02-28T15:36:34;5.53;;;1.73;;
26512;SDS011;14186;53.822;10.152;2023-02-28T15:41:35;6.03;;;1.70;;
26512;SDS011;14186;53.822;10.152;2023-02-28T15:46:36;4.10;;;2.08;;
26512;SDS011;14186;53.822;10.152;2023-02-28T15:51:38;4.32;;;1.65;;
26512;SDS011;14186;53.822;10.152;2023-02-28T15:56:38;3.58;;;1.63;;
26512;SDS011;14186;53.822;10.152;2023-02-28T16:01:39;3.55;;;1.48;;
26512;SDS011;14186;53.822;10.152;2023-02-28T16:06:40;10.43;;;3.33;;
26512;SDS011;14186;53.822;10.152;2023-02-28T16:11:42;4.10;;;1.52;;
26512;SDS011;14186;53.822;10.152;2023-02-28T16:16:43;3.20;;;1.80;;
26512;SDS011;14186;53.822;10.152;2023-02-28T16:21:45;5.63;;;1.92;;
26512;SDS011;14186;53.822;10.152;2023-02-28T16:26:46;4.75;;;1.75;;
26512;SDS011;14186;53.822;10.152;2023-02-28T16:31:46;6.88;;;2.97;;
26512;SDS011;14186;53.822;10.152;2023-02-28T16:36:48;3.97;;;1.98;;
26512;SDS011;14186;53.822;10.152;2023-02-28T16:41:49;12.73;;;5.25;;
26512;SDS011;14186;53.822;10.152;2023-02-28T16:46:50;7.65;;;3.30;;
26512;SDS011;14186;53.822;10.152;2023-02-28T16:51:51;8.27;;;2.10;;
26512;SDS011;14186;53.822;10.152;2023-02-28T16:56:51;6.07;;;2.00;;
26512;SDS011;14186;53.822;10.152;2023-02-28T17:01:52;3.65;;;1.90;;
26512;SDS011;14186;53.822;10.152;2023-02-28T17:06:54;3.45;;;1.90;;
26512;SDS011;14186;53.822;10.152;2023-02-28T17:11:54;4.90;;;1.52;;
26512;SDS011;14186;53.822;10.152;2023-02-28T17:16:54;6.22;;;2.28;;
26512;SDS011;14186;53.822;10.152;2023-02-28T17:21:56;5.28;;;1.90;;
26512;SDS011;14186;53.822;10.152;2023-02-28T17:26:56;5.60;;;2.15;;
26512;SDS011;14186;53.822;10.152;2023-02-28T17:31:56;3.55;;;1.95;;
26512;SDS011;14186;53.822;10.152;2023-02-28T17:36:58;8.18;;;2.30;;
26512;SDS011;14186;53.822;10.152;2023-02-28T17:41:58;5.10;;;1.75;;
26512;SDS011;14186;53.822;10.152;2023-02-28T17:46:58;7.55;;;2.30;;
26512;SDS011;14186;53.822;10.152;2023-02-28T17:52:00;7.03;;;2.75;;
26512;SDS011;14186;53.822;10.152;2023-02-28T17:57:00;4.70;;;2.30;;
26512;SDS011;14186;53.822;10.152;2023-02-28T18:02:00;5.47;;;3.15;;
26512;SDS011;14186;53.822;10.152;2023-02-28T18:07:02;4.73;;;2.10;;
26512;SDS011;14186;53.822;10.152;2023-02-28T18:12:02;8.60;;;3.13;;
26512;SDS011;14186;53.822;10.152;2023-02-28T18:17:02;11.32;;;3.42;;
26512;SDS011;14186;53.822;10.152;2023-02-28T18:22:04;5.30;;;2.30;;
26512;SDS011;14186;53.822;10.152;2023-02-28T18:27:04;14.38;;;4.55;;
26512;SDS011;14186;53.822;10.152;2023-02-28T18:32:04;11.38;;;5.32;;
26512;SDS011;14186;53.822;10.152;2023-02-28T18:37:06;7.03;;;2.92;;
26512;SDS011;14186;53.822;10.152;2023-02-28T18:42:06;5.60;;;2.67;;
26512;SDS011;14186;53.822;10.152;2023-02-28T18:47:06;12.00;;;5.20;;
26512;SDS011;14186;53.822;10.152;2023-02-28T18:52:08;13.50;;;6.10;;
26512;SDS011;14186;53.822;10.152;2023-02-28T18:57:08;63.97;;;22.33;;
26512;SDS011;14186;53.822;10.152;2023-02-28T19:02:08;102.25;;;41.70;;
26512;SDS011;14186;53.822;10.152;2023-02-28T19:07:10;22.00;;;9.80;;
26512;SDS011;14186;53.822;10.152;2023-02-28T19:12:10;11.57;;;5.45;;
26512;SDS011;14186;53.822;10.152;2023-02-28T19:17:10;14.35;;;5.32;;
26512;SDS011;14186;53.822;10.152;2023-02-28T19:22:12;11.85;;;4.70;;
26512;SDS011;14186;53.822;10.152;2023-02-28T19:27:12;10.20;;;4.25;;
26512;SDS011;14186;53.822;10.152;2023-02-28T19:32:12;7.50;;;4.03;;
26512;SDS011;14186;53.822;10.152;2023-02-28T19:37:14;11.90;;;3.92;;
26512;SDS011;14186;53.822;10.152;2023-02-28T19:42:15;9.27;;;5.55;;
26512;SDS011;14186;53.822;10.152;2023-02-28T19:47:15;19.60;;;9.75;;
26512;SDS011;14186;53.822;10.152;2023-02-28T19:52:17;26.60;;;12.80;;
26512;SDS011;14186;53.822;10.152;2023-02-28T19:57:17;33.00;;;17.58;;
26512;SDS011;14186;53.822;10.152;2023-02-28T20:02:18;32.22;;;15.25;;
26512;SDS011;14186;53.822;10.152;2023-02-28T20:07:19;26.65;;;14.52;;
26512;SDS011;14186;53.822;10.152;2023-02-28T20:12:19;37.92;;;17.73;;
26512;SDS011;14186;53.822;10.152;2023-02-28T20:17:20;31.35;;;13.95;;
26512;SDS011;14186;53.822;10.152;2023-02-28T20:22:21;29.67;;;13.57;;
26512;SDS011;14186;53.822;10.152;2023-02-28T20:27:22;22.73;;;10.25;;
26512;SDS011;14186;53.822;10.152;2023-02-28T20:32:22;19.17;;;8.02;;
26512;SDS011;14186;53.822;10.152;2023-02-28T20:37:23;12.95;;;6.88;;
26512;SDS011;14186;53.822;10.152;2023-02-28T20:42:23;13.10;;;5.82;;
26512;SDS011;14186;53.822;10.152;2023-02-28T20:47:24;12.30;;;6.07;;
26512;SDS011;14186;53.822;10.152;2023-02-28T20:52:25;12.88;;;5.20;;
26512;SDS011;14186;53.822;10.152;2023-02-28T20:57:27;11.32;;;5.60;;
26512;SDS011;14186;53.822;10.152;2023-02-28T21:02:27;13.00;;;6.43;;
26512;SDS011;14186;53.822;10.152;2023-02-28T21:07:29;12.93;;;6.90;;
26512;SDS011;14186;53.822;10.152;2023-02-28T21:12:29;18.40;;;7.43;;
26512;SDS011;14186;53.822;10.152;2023-02-28T21:17:29;13.80;;;7.38;;
26512;SDS011;14186;53.822;10.152;2023-02-28T21:22:31;14.57;;;6.78;;
26512;SDS011;14186;53.822;10.152;2023-02-28T21:27:31;14.15;;;7.35;;
26512;SDS011;14186;53.822;10.152;2023-02-28T21:32:31;10.07;;;5.65;;
26512;SDS011;14186;53.822;10.152;2023-02-28T21:37:33;16.65;;;6.55;;
26512;SDS011;14186;53.822;10.152;2023-02-28T21:42:35;19.33;;;7.93;;
26512;SDS011;14186;53.822;10.152;2023-02-28T21:47:36;21.92;;;10.82;;
26512;SDS011;14186;53.822;10.152;2023-02-28T21:52:37;45.28;;;19.77;;
26512;SDS011;14186;53.822;10.152;2023-02-28T21:57:37;37.35;;;14.98;;
26512;SDS011;14186;53.822;10.152;2023-02-28T22:02:38;34.53;;;14.65;;
26512;SDS011;14186;53.822;10.152;2023-02-28T22:07:39;32.65;;;15.75;;
26512;SDS011;14186;53.822;10.152;2023-02-28T22:12:47;29.83;;;15.57;;
26512;SDS011;14186;53.822;10.152;2023-02-28T22:17:47;36.40;;;16.58;;
26512;SDS011;14186;53.822;10.152;2023-02-28T22:22:48;34.70;;;15.48;;
26512;SDS011;14186;53.822;10.152;2023-02-28T22:27:49;29.58;;;15.70;;
26512;SDS011;14186;53.822;10.152;2023-02-28T22:32:49;32.10;;;14.68;;
26512;SDS011;14186;53.822;10.152;2023-02-28T22:37:50;29.42;;;12.75;;
26512;SDS011;14186;53.822;10.152;2023-02-28T22:42:51;26.45;;;13.38;;
26512;SDS011;14186;53.822;10.152;2023-02-28T22:47:51;24.77;;;12.13;;
26512;SDS011;14186;53.822;10.152;2023-02-28T22:52:52;19.30;;;8.30;;
26512;SDS011;14186;53.822;10.152;2023-02-28T22:57:53;18.42;;;8.05;;
26512;SDS011;14186;53.822;10.152;2023-02-28T23:02:53;18.58;;;7.22;;
26512;SDS011;14186;53.822;10.152;2023-02-28T23:07:53;14.75;;;6.72;;
26512;SDS011;14186;53.822;10.152;2023-02-28T23:12:55;9.13;;;5.40;;
26512;SDS011;14186;53.822;10.152;2023-02-28T23:17:55;15.45;;;6.47;;
26512;SDS011;14186;53.822;10.152;2023-02-28T23:22:55;14.45;;;6.32;;
26512;SDS011;14186;53.822;10.152;2023-02-28T23:27:57;15.60;;;8.13;;
26512;SDS011;14186;53.822;10.152;2023-02-28T23:32:57;16.52;;;7.07;;
26512;SDS011;14186;53.822;10.152;2023-02-28T23:37:57;17.88;;;7.10;;
26512;SDS011;14186;53.822;10.152;2023-02-28T23:42:59;14.32;;;7.20;;
26512;SDS011;14186;53.822;10.152;2023-02-28T23:47:59;12.80;;;7.63;;
26512;SDS011;14186;53.822;10.152;2023-02-28T23:52:59;17.75;;;8.43;;
26512;SDS011;14186;53.822;10.152;2023-02-28T23:58:01;19.98;;;9.30;;
